Time;durP1;ratioP1;P1;durP2;ratioP2;P2;SDS_P1;SDS_P2;PMS_P1;PMS_P2;Temp;Humidity;BMP_temperature;BMP_pressure;BME280_temperature;BME280_humidity;BME280_pressure;Samples;Min_cycle;Max_cycle;Signal;HPM_P1;HPM_P2
2021/03/06 00:04:51;;;;;;;8.40;4.53;;;;;;;-3.21;100.00;99818.63;3660541;81;43364;-17
2021/03/06 00:09:57;;;;;;;10.43;5.13;;;;;;;-3.24;100.00;99824.00;3659830;79;43635;-17
2021/03/06 00:15:03;;;;;;;9.67;4.83;;;;;;;-3.28;100.00;99826.30;3660009;79;44143;-17
2021/03/06 00:20:10;;;;;;;8.57;4.77;;;;;;;-3.28;100.00;99832.89;3659935;79;44022;-17
2021/03/06 00:25:19;;;;;;;8.20;4.97;;;;;;;-3.32;100.00;99834.73;3660256;80;43673;-16
2021/03/06 00:30:26;;;;;;;7.63;4.57;;;;;;;-3.34;100.00;99839.61;3657054;81;44583;-17
2021/03/06 00:35:32;;;;;;;9.73;5.37;;;;;;;-3.39;100.00;99844.15;3657066;81;43665;-17
2021/03/06 00:40:38;;;;;;;8.87;5.17;;;;;;;-3.41;100.00;99839.78;3653591;79;43686;-17
2021/03/06 00:45:44;;;;;;;9.37;5.60;;;;;;;-3.48;100.00;99844.80;3636896;80;44051;-17
2021/03/06 00:50:50;;;;;;;8.37;5.10;;;;;;;-3.55;100.00;99837.92;3635245;80;43691;-17
2021/03/06 00:55:56;;;;;;;9.00;4.80;;;;;;;-3.56;100.00;99846.73;3637710;80;43337;-17
2021/03/06 01:01:05;;;;;;;9.60;5.57;;;;;;;-3.60;100.00;99839.83;3637281;81;43976;-17
2021/03/06 01:06:12;;;;;;;8.73;4.77;;;;;;;-3.61;100.00;99834.14;3636078;80;44010;-17
2021/03/06 01:11:17;;;;;;;9.60;5.20;;;;;;;-3.63;100.00;99836.79;3636695;80;44047;-17
2021/03/06 01:16:23;;;;;;;8.93;5.20;;;;;;;-3.64;100.00;99825.84;3636994;81;44109;-17
2021/03/06 01:21:29;;;;;;;10.47;5.37;;;;;;;-3.65;100.00;99824.56;3636900;80;44027;-17
2021/03/06 01:26:36;;;;;;;9.90;5.63;;;;;;;-3.65;100.00;99830.72;3635857;80;44087;-17
2021/03/06 01:31:42;;;;;;;10.20;5.27;;;;;;;-3.69;100.00;99822.47;3637331;81;43721;-17
2021/03/06 01:36:48;;;;;;;8.40;4.70;;;;;;;-3.73;100.00;99815.09;3637631;81;44085;-17
2021/03/06 01:41:54;;;;;;;8.73;5.00;;;;;;;-3.80;100.00;99807.38;3637220;80;43324;-19
2021/03/06 01:46:59;;;;;;;8.27;4.83;;;;;;;-3.81;100.00;99819.66;3637294;80;43608;-17
2021/03/06 01:52:07;;;;;;;9.27;5.03;;;;;;;-3.85;100.00;99810.55;3637632;81;43681;-17
2021/03/06 01:57:15;;;;;;;8.60;5.13;;;;;;;-3.85;100.00;99804.84;3636775;80;43705;-17
2021/03/06 02:02:21;;;;;;;9.43;4.77;;;;;;;-3.86;100.00;99809.70;3637015;80;44743;-17
2021/03/06 02:07:27;;;;;;;9.83;5.40;;;;;;;-3.90;100.00;99809.34;3635433;80;44054;-19
2021/03/06 02:12:38;;;;;;;9.30;4.77;;;;;;;-3.96;100.00;99798.50;3638021;80;44037;-19
2021/03/06 02:17:50;;;;;;;9.53;4.97;;;;;;;-3.98;100.00;99799.45;3637769;80;43731;-18
2021/03/06 02:23:34;;;;;;;10.80;4.97;;;;;;;-3.99;100.00;99802.98;3638073;80;43429;-18
2021/03/06 02:28:43;;;;;;;7.97;4.53;;;;;;;-3.98;100.00;99804.25;3635871;80;43427;-19
2021/03/06 02:33:54;;;;;;;9.13;5.10;;;;;;;-4.04;100.00;99802.63;3635023;80;43999;-19
2021/03/06 02:39:01;;;;;;;6.73;4.67;;;;;;;-4.08;100.00;99809.31;3637405;80;42769;-19
2021/03/06 02:44:10;;;;;;;8.50;4.73;;;;;;;-4.13;100.00;99800.20;3651916;79;43051;-19
2021/03/06 02:49:16;;;;;;;8.93;4.80;;;;;;;-4.11;100.00;99802.36;3659230;79;44004;-19
2021/03/06 02:54:22;;;;;;;8.07;4.93;;;;;;;-4.15;100.00;99809.90;3658111;80;43673;-19
2021/03/06 02:59:43;;;;;;;8.57;4.53;;;;;;;-4.16;100.00;99805.53;3659720;80;44445;-19
2021/03/06 03:04:55;;;;;;;8.60;4.87;;;;;;;-4.26;100.00;99799.62;3659228;79;43585;-19
2021/03/06 03:10:05;;;;;;;9.73;4.63;;;;;;;-4.23;100.00;99806.58;3661284;79;42886;-18
2021/03/06 03:15:17;;;;;;;7.63;4.33;;;;;;;-4.25;100.00;99803.11;3660898;79;44049;-19
2021/03/06 03:20:27;;;;;;;8.00;4.87;;;;;;;-4.29;100.00;99794.89;3658767;79;43484;-19
2021/03/06 03:25:36;;;;;;;7.23;4.40;;;;;;;-4.30;100.00;99796.63;3663420;79;44067;-18
2021/03/06 03:30:42;;;;;;;8.37;4.93;;;;;;;-4.31;100.00;99805.89;3659266;81;43930;-19
2021/03/06 03:35:48;;;;;;;9.30;4.83;;;;;;;-4.36;100.00;99803.36;3659483;80;44184;-19
2021/03/06 03:40:54;;;;;;;11.53;4.37;;;;;;;-4.35;100.00;99804.63;3654797;79;44442;-19
2021/03/06 03:46:02;;;;;;;9.53;5.07;;;;;;;-4.35;100.00;99807.73;3662184;79;43305;-18
2021/03/06 03:51:09;;;;;;;9.40;5.23;;;;;;;-4.40;100.00;99808.27;3661281;79;44156;-20
2021/03/06 03:56:14;;;;;;;9.27;4.70;;;;;;;-4.40;100.00;99804.31;3661315;81;43665;-19
2021/03/06 04:01:20;;;;;;;8.43;4.97;;;;;;;-4.38;100.00;99810.41;3661584;80;43969;-19
2021/03/06 04:06:26;;;;;;;8.73;4.60;;;;;;;-4.40;100.00;99820.10;3659650;79;43451;-18
2021/03/06 04:11:34;;;;;;;8.53;4.83;;;;;;;-4.43;100.00;99822.36;3670508;79;44042;-19
2021/03/06 04:16:42;;;;;;;8.10;4.97;;;;;;;-4.44;100.00;99821.94;3665798;79;43307;-19
2021/03/06 04:21:48;;;;;;;8.67;5.03;;;;;;;-4.44;100.00;99824.56;3661860;81;44027;-19
2021/03/06 04:26:55;;;;;;;7.63;4.20;;;;;;;-4.43;100.00;99828.93;3663423;79;43408;-19
2021/03/06 04:32:00;;;;;;;8.07;4.73;;;;;;;-4.46;100.00;99828.98;3661804;81;44738;-20
2021/03/06 04:37:07;;;;;;;8.47;4.63;;;;;;;-4.47;100.00;99832.52;3659668;79;44037;-20
2021/03/06 04:42:14;;;;;;;8.13;4.60;;;;;;;-4.54;100.00;99825.20;3659578;79;44063;-20
2021/03/06 04:47:20;;;;;;;10.00;5.07;;;;;;;-4.56;100.00;99828.77;3635757;80;44828;-19
2021/03/06 04:52:27;;;;;;;10.63;4.50;;;;;;;-4.63;100.00;99842.48;3637845;80;44068;-20
2021/03/06 04:57:33;;;;;;;9.20;4.53;;;;;;;-4.68;100.00;99836.44;3642963;80;44070;-18
2021/03/06 05:02:39;;;;;;;9.00;4.80;;;;;;;-4.68;100.00;99839.95;3638592;80;44068;-19
2021/03/06 05:07:45;;;;;;;10.03;5.07;;;;;;;-4.70;100.00;99839.53;3638075;81;43369;-18
2021/03/06 05:12:52;;;;;;;10.47;5.77;;;;;;;-4.75;100.00;99844.89;3638210;80;44026;-20
2021/03/06 05:17:59;;;;;;;8.43;4.67;;;;;;;-4.80;100.00;99848.07;3638825;81;43719;-18
2021/03/06 05:23:06;;;;;;;8.83;4.80;;;;;;;-4.80;100.00;99850.70;3638413;80;44061;-19
2021/03/06 05:28:13;;;;;;;7.77;4.80;;;;;;;-4.80;100.00;99857.27;3639674;80;43575;-18
2021/03/06 05:33:20;;;;;;;11.07;5.40;;;;;;;-4.81;100.00;99856.39;3642481;80;43785;-18
2021/03/06 05:38:26;;;;;;;9.07;5.07;;;;;;;-4.82;100.00;99853.34;3638934;81;43328;-18
2021/03/06 05:43:33;;;;;;;8.73;5.27;;;;;;;-4.82;100.00;99855.11;3638136;79;43376;-19
2021/03/06 05:48:39;;;;;;;8.20;4.60;;;;;;;-4.84;100.00;99854.27;3638684;80;44024;-19
2021/03/06 05:53:46;;;;;;;7.87;4.53;;;;;;;-4.85;100.00;99860.42;3638162;80;43161;-19
2021/03/06 05:58:54;;;;;;;8.17;4.73;;;;;;;-4.86;100.00;99859.57;3639432;80;44070;-18
2021/03/06 06:04:02;;;;;;;7.40;4.27;;;;;;;-4.87;100.00;99850.38;3638004;80;44831;-19
2021/03/06 06:09:09;;;;;;;8.67;4.83;;;;;;;-4.90;100.00;99851.31;3671523;79;44454;-19
2021/03/06 06:14:15;;;;;;;9.40;4.53;;;;;;;-4.91;100.00;99852.20;3738912;77;43362;-18
2021/03/06 06:19:22;;;;;;;9.80;5.07;;;;;;;-4.95;100.00;99852.71;3746641;79;44626;-19
2021/03/06 06:24:30;;;;;;;10.33;4.50;;;;;;;-4.87;100.00;99856.52;3730905;79;44087;-19
2021/03/06 06:29:45;;;;;;;8.83;4.67;;;;;;;-4.83;100.00;99867.84;3722812;77;43717;-19
2021/03/06 06:35:02;;;;;;;9.67;4.97;;;;;;;-4.75;100.00;99871.64;3732255;77;44043;-19
2021/03/06 06:40:22;;;;;;;8.77;4.80;;;;;;;-4.70;100.00;99877.23;3732375;79;44426;-19
2021/03/06 06:45:37;;;;;;;9.33;4.93;;;;;;;-4.64;100.00;99879.73;3749873;78;42863;-18
2021/03/06 06:50:43;;;;;;;9.73;5.13;;;;;;;-4.58;100.00;99883.16;3750620;78;44125;-18
2021/03/06 06:55:49;;;;;;;11.40;5.80;;;;;;;-4.47;100.00;99893.48;3738879;78;44023;-18
2021/03/06 07:00:57;;;;;;;11.47;6.27;;;;;;;-4.37;100.00;99898.98;3752190;78;43681;-18
2021/03/06 07:06:13;;;;;;;9.43;5.30;;;;;;;-4.26;100.00;99907.95;3752553;77;43472;-18
2021/03/06 07:11:26;;;;;;;8.67;5.10;;;;;;;-4.13;100.00;99904.64;3733042;77;44331;-19
2021/03/06 07:16:57;;;;;;;10.37;5.00;;;;;;;-4.03;100.00;99912.30;3716725;79;44113;-19
2021/03/06 07:22:05;;;;;;;8.23;5.07;;;;;;;-3.93;100.00;99919.56;3716383;79;43280;-18
2021/03/06 07:27:10;;;;;;;10.50;4.87;;;;;;;-3.84;100.00;99919.81;3729006;77;44046;-18
2021/03/06 07:32:18;;;;;;;10.67;5.30;;;;;;;-3.74;100.00;99914.77;3729397;78;43323;-17
2021/03/06 07:37:26;;;;;;;10.37;4.90;;;;;;;-3.62;100.00;99925.92;3750247;77;44031;-17
2021/03/06 07:42:37;;;;;;;9.60;4.97;;;;;;;-3.52;100.00;99919.54;3734678;77;44015;-17
2021/03/06 07:47:46;;;;;;;11.60;5.80;;;;;;;-3.37;100.00;99922.73;3744306;77;43346;-17
2021/03/06 07:52:55;;;;;;;9.23;5.37;;;;;;;-3.28;100.00;99921.19;3669900;79;44434;-16
2021/03/06 07:58:06;;;;;;;9.97;5.53;;;;;;;-3.17;100.00;99928.81;3734336;77;43673;-17
2021/03/06 08:03:37;;;;;;;10.20;5.10;;;;;;;-2.94;100.00;99931.75;3740991;77;44088;-17
2021/03/06 08:09:02;;;;;;;9.43;4.83;;;;;;;-2.79;100.00;99940.19;3731527;77;43431;-19
2021/03/06 08:14:28;;;;;;;9.07;5.10;;;;;;;-2.62;100.00;99930.51;3675458;79;44401;-18
2021/03/06 08:19:37;;;;;;;7.40;4.83;;;;;;;-2.46;100.00;99934.06;3668303;79;43357;-17
2021/03/06 08:24:44;;;;;;;8.23;5.23;;;;;;;-2.23;100.00;99932.98;3670696;79;43365;-17
2021/03/06 08:29:55;;;;;;;8.23;5.20;;;;;;;-2.09;100.00;99943.14;3742031;77;43499;-17
2021/03/06 08:35:02;;;;;;;8.57;5.10;;;;;;;-1.91;100.00;99943.07;3673432;79;43460;-17
2021/03/06 08:40:12;;;;;;;11.03;5.87;;;;;;;-1.74;100.00;99943.04;3726462;77;44121;-17
2021/03/06 08:45:24;;;;;;;9.93;6.00;;;;;;;-1.49;100.00;99947.59;3696356;77;43301;-17
2021/03/06 08:50:31;;;;;;;9.17;5.47;;;;;;;-1.32;100.00;99945.27;3607264;80;43674;-19
2021/03/06 08:55:40;;;;;;;8.57;4.97;;;;;;;-1.17;100.00;99941.73;3608403;81;43280;-17
2021/03/06 09:00:48;;;;;;;8.07;4.70;;;;;;;-0.95;100.00;99935.30;3655580;80;43477;-17
2021/03/06 09:05:57;;;;;;;8.93;4.60;;;;;;;-0.74;100.00;99927.55;3664880;79;43272;-22
2021/03/06 09:11:04;;;;;;;7.47;4.47;;;;;;;-0.51;100.00;99921.44;3622148;81;43309;-20
2021/03/06 09:16:12;;;;;;;7.53;4.30;;;;;;;-0.29;100.00;99921.55;3607458;80;44046;-20
2021/03/06 09:21:20;;;;;;;6.90;4.10;;;;;;;-0.02;100.00;99930.75;3689554;79;44682;-21
2021/03/06 09:26:27;;;;;;;6.53;4.00;;;;;;;0.78;98.66;99929.91;3695074;79;44550;-19
2021/03/06 09:31:33;;;;;;;7.43;3.70;;;;;;;0.95;98.07;99921.26;3686165;80;44712;-15
2021/03/06 09:36:41;;;;;;;6.47;4.13;;;;;;;1.37;94.39;99929.22;3688536;80;43708;-25
2021/03/06 09:41:47;;;;;;;5.93;3.60;;;;;;;1.81;90.69;99919.36;3678298;80;44018;-27
2021/03/06 09:46:59;;;;;;;6.50;4.10;;;;;;;2.28;89.48;99914.16;3712535;77;44039;-20
2021/03/06 09:52:01;;;;;;;8.33;4.47;;;;;;;2.77;87.35;99911.78;3733941;79;44102;-21
2021/03/06 09:57:09;;;;;;;5.40;4.00;;;;;;;3.04;83.82;99910.53;3672425;79;43766;-21
2021/03/06 10:02:15;;;;;;;6.67;4.70;;;;;;;3.18;83.33;99912.00;3733295;79;44032;-21
2021/03/06 10:07:24;;;;;;;11.17;5.23;;;;;;;2.98;77.94;99912.14;3736415;79;43682;-22
2021/03/06 10:12:29;;;;;;;6.77;5.00;;;;;;;3.25;71.26;99911.23;3723143;77;43143;-21
2021/03/06 10:17:36;;;;;;;6.43;4.27;;;;;;;3.32;73.02;99917.11;3736488;77;44086;-20
2021/03/06 10:22:48;;;;;;;7.20;4.50;;;;;;;2.78;66.87;99915.33;3726601;77;43329;-20
2021/03/06 10:27:55;;;;;;;6.00;4.40;;;;;;;2.67;71.56;99909.18;3726147;77;43114;-20
2021/03/06 10:33:02;;;;;;;5.87;3.40;;;;;;;2.69;68.22;99913.97;3670962;79;44051;-20
2021/03/06 10:38:10;;;;;;;5.70;4.20;;;;;;;2.64;65.25;99919.12;3740351;79;44002;-20
2021/03/06 10:43:30;;;;;;;4.90;3.87;;;;;;;2.62;68.09;99904.57;3671475;80;43746;-20
2021/03/06 10:48:37;;;;;;;5.30;4.03;;;;;;;2.62;68.03;99919.20;3740274;79;44689;-20
2021/03/06 10:53:43;;;;;;;6.27;4.20;;;;;;;2.74;63.69;99905.76;3662775;79;43376;-20
2021/03/06 10:58:50;;;;;;;5.87;3.87;;;;;;;3.04;67.46;99915.37;3730935;79;44097;-20
2021/03/06 11:03:58;;;;;;;4.27;3.40;;;;;;;2.87;62.99;99914.02;3723396;77;44890;-21
2021/03/06 11:09:06;;;;;;;5.30;3.30;;;;;;;2.88;63.29;99907.77;3738184;77;44079;-20
2021/03/06 11:14:24;;;;;;;6.53;3.23;;;;;;;3.13;63.52;99900.73;3746376;79;43338;-20
2021/03/06 11:19:30;;;;;;;4.17;3.03;;;;;;;3.12;62.58;99900.34;3736857;79;44026;-20
2021/03/06 11:24:36;;;;;;;3.87;3.13;;;;;;;2.96;60.82;99908.23;3737533;77;44383;-20
2021/03/06 11:29:42;;;;;;;4.47;3.13;;;;;;;3.05;62.38;99901.12;3742112;79;42789;-20
2021/03/06 11:34:48;;;;;;;5.87;3.60;;;;;;;3.13;58.57;99898.08;3743521;79;43515;-21
2021/03/06 11:39:54;;;;;;;4.43;3.27;;;;;;;3.33;61.49;99891.74;3731906;77;43709;-21
2021/03/06 11:45:01;;;;;;;4.23;3.33;;;;;;;3.29;57.32;99892.83;3735151;79;43682;-20
2021/03/06 11:50:09;;;;;;;5.00;3.10;;;;;;;3.24;56.66;99874.42;3729605;79;43330;-20
2021/03/06 11:55:16;;;;;;;4.10;3.57;;;;;;;3.55;60.36;99863.48;3733751;79;43459;-20
2021/03/06 12:00:24;;;;;;;4.00;3.27;;;;;;;3.48;57.66;99862.09;3737389;79;44102;-21
2021/03/06 12:05:31;;;;;;;4.53;3.37;;;;;;;3.58;60.51;99851.83;3723319;79;43681;-20
2021/03/06 12:10:37;;;;;;;5.20;3.40;;;;;;;3.54;59.80;99846.26;3733488;79;44027;-20
2021/03/06 12:15:43;;;;;;;4.13;3.20;;;;;;;3.60;58.75;99833.92;3730995;79;43706;-21
2021/03/06 12:20:48;;;;;;;4.93;2.67;;;;;;;3.76;58.12;99828.66;3734209;77;43334;-21
2021/03/06 12:25:55;;;;;;;3.80;2.60;;;;;;;3.60;55.36;99825.92;3724455;78;43321;-20
2021/03/06 12:31:00;;;;;;;3.50;2.80;;;;;;;3.61;54.06;99813.00;3751267;78;44107;-20
2021/03/06 12:36:08;;;;;;;4.20;2.77;;;;;;;3.74;53.55;99807.88;3750910;79;43416;-20
2021/03/06 12:41:14;;;;;;;4.33;2.60;;;;;;;3.82;52.24;99808.31;3751787;79;43077;-20
2021/03/06 12:46:22;;;;;;;5.57;3.40;;;;;;;3.81;52.97;99809.25;3754637;78;44096;-20
2021/03/06 12:51:28;;;;;;;4.83;3.20;;;;;;;3.79;53.39;99797.81;3764408;78;43056;-21
2021/03/06 12:56:34;;;;;;;3.97;3.10;;;;;;;3.89;52.31;99791.51;3707136;80;43976;-20
2021/03/06 13:01:40;;;;;;;5.07;2.80;;;;;;;3.93;53.02;99774.86;3699636;79;43414;-21
2021/03/06 13:06:47;;;;;;;3.83;3.10;;;;;;;4.07;53.15;99786.08;3707242;80;43428;-21
2021/03/06 13:11:53;;;;;;;4.30;2.90;;;;;;;4.14;51.81;99781.66;3706972;80;43455;-21
2021/03/06 13:16:59;;;;;;;4.00;2.90;;;;;;;4.27;54.17;99779.17;3644889;81;44331;-20
2021/03/06 13:22:05;;;;;;;4.40;3.00;;;;;;;4.39;54.18;99774.08;3726484;79;44536;-20
2021/03/06 13:27:11;;;;;;;4.37;2.90;;;;;;;4.50;52.95;99767.64;3706733;79;43957;-21
2021/03/06 13:32:17;;;;;;;5.23;2.87;;;;;;;4.61;54.51;99766.53;3726884;79;43716;-20
2021/03/06 13:37:23;;;;;;;5.97;2.63;;;;;;;4.61;55.39;99757.65;3697746;80;43698;-21
2021/03/06 13:42:31;;;;;;;3.80;2.83;;;;;;;4.66;50.75;99757.37;3692267;80;43418;-21
2021/03/06 13:47:36;;;;;;;4.23;3.03;;;;;;;4.71;54.64;99753.97;3685066;80;43327;-21
2021/03/06 13:52:43;;;;;;;3.93;2.80;;;;;;;4.82;56.69;99754.69;3663893;80;43388;-21
2021/03/06 13:57:49;;;;;;;4.43;2.70;;;;;;;4.85;56.69;99750.02;3666390;80;44090;-21
2021/03/06 14:02:54;;;;;;;4.37;2.57;;;;;;;4.91;58.57;99748.30;3753489;79;44805;-21
2021/03/06 14:08:00;;;;;;;2.63;2.40;;;;;;;5.05;55.72;99746.14;3756651;78;42744;-21
2021/03/06 14:13:07;;;;;;;2.93;2.20;;;;;;;5.06;53.67;99729.63;3756691;79;43690;-21
2021/03/06 14:18:12;;;;;;;3.33;2.60;;;;;;;5.16;53.13;99733.94;3756700;79;44641;-21
2021/03/06 14:23:18;;;;;;;4.97;2.40;;;;;;;5.15;53.39;99721.04;3757744;79;43488;-21
2021/03/06 14:28:26;;;;;;;2.70;2.50;;;;;;;5.25;55.17;99710.66;3664098;80;44259;-21
2021/03/06 14:33:32;;;;;;;3.10;2.10;;;;;;;5.66;55.59;99702.31;3755421;78;44118;-21
2021/03/06 14:38:39;;;;;;;4.40;2.40;;;;;;;5.66;52.54;99699.64;3754053;78;43345;-22
2021/03/06 14:43:47;;;;;;;3.20;2.50;;;;;;;5.51;54.40;99703.66;3751334;79;43299;-21
2021/03/06 14:48:53;;;;;;;3.53;2.00;;;;;;;5.37;53.66;99693.85;3761288;78;44072;-22
2021/03/06 14:54:00;;;;;;;4.03;2.57;;;;;;;5.25;55.13;99686.11;3769110;79;43685;-21
2021/03/06 14:59:06;;;;;;;4.10;2.60;;;;;;;5.45;53.93;99676.46;3705359;80;43723;-21
2021/03/06 15:04:12;;;;;;;3.97;2.33;;;;;;;5.54;53.30;99676.74;3696307;80;44048;-21
2021/03/06 15:09:20;;;;;;;4.93;2.33;;;;;;;5.09;53.83;99675.53;3689528;79;44165;-20
2021/03/06 15:14:26;;;;;;;3.37;2.23;;;;;;;5.60;56.91;99669.27;3689471;80;43766;-20
2021/03/06 15:19:32;;;;;;;3.97;2.27;;;;;;;5.71;54.80;99660.08;3690937;79;43670;-21
2021/03/06 15:24:38;;;;;;;2.80;2.20;;;;;;;5.55;53.57;99654.41;3689351;80;44026;-22
2021/03/06 15:29:45;;;;;;;3.87;2.50;;;;;;;5.60;54.05;99661.25;3688704;79;44061;-20
2021/03/06 15:34:51;;;;;;;2.57;2.30;;;;;;;5.90;56.66;99649.53;3691377;79;44007;-20
2021/03/06 15:40:00;;;;;;;4.50;2.03;;;;;;;5.69;54.78;99653.50;3690494;79;43982;-21
2021/03/06 15:45:09;;;;;;;2.63;2.20;;;;;;;5.69;54.19;99643.30;3690379;80;43718;-21
2021/03/06 15:50:16;;;;;;;3.23;2.10;;;;;;;5.65;56.20;99636.42;3690228;79;43690;-20
2021/03/06 15:55:22;;;;;;;3.77;2.00;;;;;;;5.68;56.73;99632.22;3689835;80;44033;-20
2021/03/06 16:00:27;;;;;;;3.33;1.90;;;;;;;5.44;54.55;99620.83;3690818;80;44097;-21
2021/03/06 16:05:34;;;;;;;4.07;1.87;;;;;;;5.61;56.95;99614.84;3690996;80;43997;-21
2021/03/06 16:10:41;;;;;;;5.00;3.10;;;;;;;5.62;58.35;99609.88;3690712;79;43668;-21
2021/03/06 16:15:47;;;;;;;4.17;2.20;;;;;;;5.79;58.14;99610.98;3704803;79;44417;-20
2021/03/06 16:20:54;;;;;;;3.13;2.23;;;;;;;5.56;55.55;99604.45;3722280;79;44023;-20
2021/03/06 16:26:00;;;;;;;3.83;2.00;;;;;;;5.57;58.95;99602.66;3706578;79;43412;-22
2021/03/06 16:31:08;;;;;;;3.87;2.10;;;;;;;5.48;60.54;99608.95;3700547;80;43468;-20
2021/03/06 16:36:15;;;;;;;2.33;2.10;;;;;;;5.66;59.23;99606.90;3691013;80;43718;-20
2021/03/06 16:41:21;;;;;;;3.13;2.07;;;;;;;5.29;60.14;99601.75;3690567;79;43438;-20
2021/03/06 16:46:30;;;;;;;5.30;2.40;;;;;;;4.73;62.68;99610.09;3690829;79;43510;-19
2021/03/06 16:51:37;;;;;;;4.00;2.20;;;;;;;4.51;63.32;99605.69;3688984;79;44052;-20
2021/03/06 16:56:43;;;;;;;4.50;2.40;;;;;;;4.34;65.16;99600.91;3689971;80;43682;-20
2021/03/06 17:01:49;;;;;;;4.77;3.30;;;;;;;4.04;63.09;99604.92;3689802;80;43363;-20
2021/03/06 17:06:56;;;;;;;6.90;3.17;;;;;;;3.73;65.56;99601.36;3690616;80;44512;-20
2021/03/06 17:12:02;;;;;;;5.67;2.87;;;;;;;3.53;66.81;99597.56;3709069;79;44081;-20
2021/03/06 17:17:08;;;;;;;5.87;2.33;;;;;;;3.22;67.03;99596.63;3700142;80;43319;-20
2021/03/06 17:22:14;;;;;;;5.57;2.30;;;;;;;3.00;66.47;99612.08;3767164;78;43486;-19
2021/03/06 17:27:20;;;;;;;7.00;2.20;;;;;;;2.88;68.15;99607.81;3767696;78;43776;-20
2021/03/06 17:32:26;;;;;;;4.00;2.07;;;;;;;2.76;68.30;99607.98;3765513;78;44108;-16
2021/03/06 17:37:33;;;;;;;4.63;2.20;;;;;;;2.65;69.56;99618.83;3768050;78;44096;-17
2021/03/06 17:42:39;;;;;;;3.33;2.10;;;;;;;2.50;69.18;99606.72;3766191;78;43019;-18
2021/03/06 17:47:46;;;;;;;5.00;2.27;;;;;;;2.43;70.32;99606.66;3705256;80;43689;-17
2021/03/06 17:52:52;;;;;;;3.73;2.10;;;;;;;2.31;71.24;99611.68;3764969;79;42988;-18
2021/03/06 17:57:59;;;;;;;4.93;2.50;;;;;;;2.24;74.37;99610.26;3706418;79;43681;-17
2021/03/06 18:03:07;;;;;;;5.60;2.83;;;;;;;1.93;80.41;99613.64;3768039;79;43508;-17
2021/03/06 18:08:13;;;;;;;7.10;3.87;;;;;;;1.76;82.02;99614.48;3768088;78;44021;-16
2021/03/06 18:13:19;;;;;;;17.17;10.50;;;;;;;1.63;82.33;99612.42;3768729;78;43717;-16
2021/03/06 18:18:25;;;;;;;11.60;7.40;;;;;;;1.42;84.68;99607.67;3760913;79;43388;-17
2021/03/06 18:23:31;;;;;;;9.73;5.50;;;;;;;0.96;87.29;99609.36;3766803;79;43284;-16
2021/03/06 18:28:37;;;;;;;8.77;5.00;;;;;;;0.86;88.10;99603.64;3644263;80;44162;-16
2021/03/06 18:33:43;;;;;;;7.00;4.30;;;;;;;0.80;88.07;99601.73;3766804;78;43323;-17
2021/03/06 18:38:50;;;;;;;7.40;3.80;;;;;;;0.85;87.02;99587.33;3641849;81;43893;-17
2021/03/06 18:43:56;;;;;;;7.50;3.93;;;;;;;0.92;85.66;99583.45;3766807;79;44065;-17
2021/03/06 18:49:01;;;;;;;5.30;3.50;;;;;;;0.87;85.61;99572.66;3767841;79;43329;-16
2021/03/06 18:54:07;;;;;;;6.13;4.07;;;;;;;0.80;86.05;99573.87;3727346;78;43726;-16
2021/03/06 18:59:13;;;;;;;8.07;4.03;;;;;;;0.49;90.53;99583.20;3712974;79;43307;-16
2021/03/06 19:04:19;;;;;;;5.53;3.67;;;;;;;0.27;93.00;99583.72;3630352;80;44218;-17
2021/03/06 19:09:27;;;;;;;6.67;4.23;;;;;;;0.21;93.28;99577.34;3718342;78;43021;-15
2021/03/06 19:14:33;;;;;;;7.13;3.77;;;;;;;0.23;92.94;99574.17;3629809;80;42980;-17
2021/03/06 19:19:39;;;;;;;7.43;3.97;;;;;;;0.27;91.34;99573.11;3719408;78;44094;-16
2021/03/06 19:24:46;;;;;;;7.07;4.13;;;;;;;0.22;91.28;99579.07;3630202;80;44103;-17
2021/03/06 19:29:52;;;;;;;6.97;3.90;;;;;;;0.16;92.79;99571.41;3719507;78;44018;-17
2021/03/06 19:35:00;;;;;;;4.70;3.70;;;;;;;0.09;93.73;99576.11;3713755;78;43366;-17
2021/03/06 19:40:08;;;;;;;8.97;3.87;;;;;;;0.08;93.54;99570.41;3629860;80;44185;-16
2021/03/06 19:45:17;;;;;;;6.67;3.90;;;;;;;0.03;93.89;99575.50;3717248;79;44073;-17
2021/03/06 19:50:23;;;;;;;6.47;4.33;;;;;;;-0.09;94.54;99577.75;3718376;79;43701;-17
2021/03/06 19:55:30;;;;;;;7.07;4.63;;;;;;;-0.19;94.75;99564.03;3631918;81;44067;-17
2021/03/06 20:00:38;;;;;;;7.07;4.17;;;;;;;-0.27;96.34;99563.50;3629404;80;43384;-16
2021/03/06 20:05:44;;;;;;;9.60;5.20;;;;;;;-0.33;96.68;99561.09;3713085;79;44007;-16
2021/03/06 20:10:52;;;;;;;12.73;8.23;;;;;;;-0.40;97.61;99560.96;3631050;80;45035;-17
2021/03/06 20:15:59;;;;;;;11.87;6.93;;;;;;;-0.60;100.00;99556.48;3716740;79;44156;-16
2021/03/06 20:21:07;;;;;;;14.43;8.50;;;;;;;-0.72;100.00;99554.73;3631452;80;43682;-17
2021/03/06 20:26:13;;;;;;;9.03;5.90;;;;;;;-0.81;100.00;99548.48;3630705;81;44430;-16
2021/03/06 20:31:19;;;;;;;9.67;5.93;;;;;;;-0.85;100.00;99556.14;3630319;80;43683;-17
2021/03/06 20:36:25;;;;;;;9.00;5.27;;;;;;;-0.88;100.00;99550.98;3716808;79;43335;-16
2021/03/06 20:41:32;;;;;;;7.93;5.67;;;;;;;-0.94;100.00;99557.35;3719860;78;43345;-16
2021/03/06 20:46:38;;;;;;;8.80;4.83;;;;;;;-0.95;100.00;99559.63;3628540;80;44055;-17
2021/03/06 20:51:44;;;;;;;9.23;4.43;;;;;;;-1.00;100.00;99551.84;3714639;79;43371;-17
2021/03/06 20:56:50;;;;;;;8.27;4.47;;;;;;;-1.08;100.00;99557.91;3630187;81;44405;-17
2021/03/06 21:01:56;;;;;;;10.90;5.40;;;;;;;-1.13;100.00;99558.56;3727013;79;43972;-16
2021/03/06 21:07:04;;;;;;;7.30;5.10;;;;;;;-1.19;100.00;99562.30;3629649;80;43681;-16
2021/03/06 21:12:12;;;;;;;8.73;5.53;;;;;;;-1.27;100.00;99563.91;3722077;79;43294;-17
2021/03/06 21:17:19;;;;;;;10.63;5.50;;;;;;;-1.26;100.00;99560.79;3631667;80;43374;-17
2021/03/06 21:22:25;;;;;;;10.27;5.80;;;;;;;-1.30;100.00;99553.44;3717474;78;43306;-16
2021/03/06 21:27:31;;;;;;;8.27;5.03;;;;;;;-1.33;100.00;99548.73;3630176;81;44084;-16
2021/03/06 21:32:38;;;;;;;10.00;5.67;;;;;;;-1.36;100.00;99547.08;3633484;80;44574;-16
2021/03/06 21:37:45;;;;;;;9.87;5.37;;;;;;;-1.39;100.00;99549.83;3717992;78;44174;-16
2021/03/06 21:42:51;;;;;;;9.10;6.60;;;;;;;-1.42;100.00;99544.66;3628419;81;43715;-17
2021/03/06 21:47:58;;;;;;;8.40;4.97;;;;;;;-1.46;100.00;99544.36;3632850;80;44440;-16
2021/03/06 21:53:05;;;;;;;8.50;4.67;;;;;;;-1.50;100.00;99536.16;3728606;78;44261;-16
2021/03/06 21:58:10;;;;;;;5.27;4.33;;;;;;;-1.52;100.00;99531.38;3642876;80;44457;-16
2021/03/06 22:03:17;;;;;;;6.73;4.53;;;;;;;-1.53;100.00;99526.57;3737944;79;44083;-17
2021/03/06 22:08:23;;;;;;;6.13;4.43;;;;;;;-1.58;100.00;99535.12;3645145;80;43994;-15
2021/03/06 22:13:29;;;;;;;6.67;4.40;;;;;;;-1.62;100.00;99537.02;3736169;79;44052;-19
2021/03/06 22:18:35;;;;;;;8.37;4.30;;;;;;;-1.63;100.00;99535.29;3651838;80;44444;-19
2021/03/06 22:23:41;;;;;;;9.30;4.83;;;;;;;-1.66;100.00;99531.43;3738602;79;43944;-19
2021/03/06 22:28:47;;;;;;;10.03;4.97;;;;;;;-1.68;100.00;99533.27;3743545;79;44071;-18
2021/03/06 22:33:53;;;;;;;6.43;4.27;;;;;;;-1.67;100.00;99530.18;3646678;81;44078;-19
2021/03/06 22:38:59;;;;;;;7.40;4.53;;;;;;;-1.68;100.00;99528.45;3737574;78;43347;-18
2021/03/06 22:44:06;;;;;;;9.00;4.60;;;;;;;-1.75;100.00;99519.41;3736676;78;42749;-18
2021/03/06 22:49:12;;;;;;;9.70;4.67;;;;;;;-1.76;100.00;99522.13;3649649;80;44499;-18
2021/03/06 22:54:20;;;;;;;8.67;4.77;;;;;;;-1.76;100.00;99515.52;3759902;78;44825;-17
2021/03/06 22:59:26;;;;;;;6.77;4.90;;;;;;;-1.78;100.00;99505.02;3703513;79;44087;-17
2021/03/06 23:04:33;;;;;;;10.10;4.97;;;;;;;-1.77;100.00;99508.06;3765688;79;43677;-17
2021/03/06 23:09:39;;;;;;;8.97;4.73;;;;;;;-1.78;100.00;99493.57;3702857;79;43691;-19
2021/03/06 23:14:46;;;;;;;10.70;5.20;;;;;;;-1.77;100.00;99488.69;3763444;79;43972;-18
2021/03/06 23:19:54;;;;;;;9.20;5.57;;;;;;;-1.82;100.00;99481.41;3707086;79;44459;-19
2021/03/06 23:25:01;;;;;;;8.30;5.60;;;;;;;-1.86;100.00;99480.20;3767359;78;44464;-18
2021/03/06 23:30:11;;;;;;;9.13;5.80;;;;;;;-1.89;100.00;99475.02;3706754;79;43713;-18
2021/03/06 23:35:17;;;;;;;9.70;5.63;;;;;;;-1.93;100.00;99472.08;3765536;79;43349;-18
2021/03/06 23:40:27;;;;;;;7.83;5.20;;;;;;;-1.99;100.00;99474.96;3706551;79;43686;-18
2021/03/06 23:45:33;;;;;;;9.80;5.57;;;;;;;-2.05;100.00;99473.84;3766184;79;43279;-18
2021/03/06 23:50:40;;;;;;;9.77;5.37;;;;;;;-2.09;100.00;99469.61;3767840;78;43155;-17
2021/03/06 23:55:47;;;;;;;7.50;5.20;;;;;;;-2.12;100.00;99470.59;3762012;79;44107;-18
